createdAt,value
2023-11-03T03:07:49.367Z,8.67
2023-11-03T08:21:48.592Z,9.28
2023-11-03T08:24:41.590Z,9.27
2023-11-03T08:30:24.792Z,9.31
2023-11-03T08:36:01.570Z,9.28
2023-11-03T08:55:42.125Z,9.51
2023-11-03T09:15:27.504Z,10.20
2023-11-03T09:24:44.871Z,10.69
2023-11-03T09:27:42.745Z,10.80
2023-11-03T09:33:14.514Z,10.85
2023-11-03T09:41:35.201Z,11.06
2023-11-03T09:44:14.915Z,10.95
2023-11-03T09:46:53.719Z,10.86
2023-11-03T09:49:38.214Z,10.74
2023-11-03T09:52:18.474Z,10.76
2023-11-03T10:00:24.826Z,10.89
2023-11-03T10:03:03.518Z,10.82
2023-11-03T10:05:41.056Z,10.89
2023-11-03T10:08:24.950Z,10.92
2023-11-03T10:10:57.674Z,10.94
2023-11-03T10:13:39.456Z,10.93
2023-11-03T10:16:12.644Z,11.11
2023-11-03T10:19:00.926Z,11.17
2023-11-03T10:21:33.372Z,11.20
2023-11-03T10:24:12.512Z,11.14
2023-11-03T10:26:45.727Z,11.29
2023-11-03T10:29:27.305Z,11.27
2023-11-03T10:32:08.820Z,11.25
2023-11-03T10:34:37.763Z,11.21
2023-11-03T10:43:01.808Z,11.11
2023-11-03T10:46:03.125Z,10.95
2023-11-03T10:48:43.184Z,11.02
2023-11-03T10:54:47.327Z,11.05
2023-11-03T11:00:21.957Z,11.01
2023-11-03T11:03:06.492Z,11.08
2023-11-03T11:06:10.336Z,11.12
2023-11-03T11:08:53.944Z,11.16
2023-11-03T11:11:26.508Z,11.20
2023-11-03T11:14:03.026Z,11.19
2023-11-03T11:16:33.054Z,11.27
2023-11-03T11:19:13.404Z,11.22
2023-11-03T11:21:54.296Z,11.30
2023-11-03T11:24:37.245Z,11.23
2023-11-03T11:27:31.604Z,11.22
2023-11-03T11:30:15.029Z,11.12
2023-11-03T11:33:01.568Z,11.14
2023-11-03T11:35:47.951Z,10.98
2023-11-03T11:38:17.483Z,11.00
2023-11-03T11:40:52.316Z,10.94
2023-11-03T11:43:41.632Z,10.94
2023-11-03T11:46:23.521Z,10.90
2023-11-03T11:49:01.122Z,10.88
2023-11-03T11:51:37.214Z,10.89
2023-11-03T11:54:06.572Z,10.91
2023-11-03T11:56:41.522Z,10.95
2023-11-03T11:59:13.863Z,10.95
2023-11-03T12:01:51.463Z,11.04
2023-11-03T12:04:22.028Z,11.10
2023-11-03T12:06:58.235Z,11.04
2023-11-03T12:09:40.645Z,11.30
2023-11-03T12:17:55.922Z,11.55
2023-11-03T12:20:24.833Z,11.53
2023-11-03T12:25:52.673Z,11.55
2023-11-03T12:28:23.451Z,11.65
2023-11-03T12:31:05.190Z,11.67
2023-11-03T12:33:40.471Z,11.75
2023-11-03T12:36:09.412Z,11.85
2023-11-03T12:38:56.274Z,11.91
2023-11-03T12:41:31.148Z,12.15
2023-11-03T12:44:09.268Z,12.41
2023-11-03T12:46:54.861Z,12.52
2023-11-03T12:49:26.490Z,12.51
2023-11-03T12:52:02.394Z,12.53
2023-11-03T12:54:31.366Z,12.24
2023-11-03T12:57:09.330Z,12.47
2023-11-03T12:59:36.915Z,12.74
2023-11-03T13:02:13.072Z,13.18
2023-11-03T13:04:41.051Z,13.51
2023-11-03T13:07:20.028Z,13.89
2023-11-03T13:09:48.794Z,14.46
2023-11-03T13:12:22.693Z,14.85
2023-11-03T13:14:49.596Z,15.21
2023-11-03T13:17:22.731Z,15.37
2023-11-03T13:19:49.566Z,15.68
2023-11-03T13:22:24.242Z,16.11
2023-11-03T13:24:51.918Z,16.60
2023-11-03T13:27:25.614Z,16.99
2023-11-03T13:29:58.719Z,17.12
2023-11-03T13:32:28.123Z,17.47
2023-11-03T13:35:03.083Z,17.46
2023-11-03T13:37:30.956Z,17.06
2023-11-03T13:40:04.576Z,16.63
2023-11-03T13:42:39.465Z,16.41
2023-11-03T13:45:23.069Z,16.10
2023-11-03T13:47:51.637Z,15.91
2023-11-03T13:50:27.375Z,15.79
2023-11-03T13:53:10.750Z,15.61
2023-11-03T13:55:52.106Z,15.85
2023-11-03T13:58:19.403Z,16.16
2023-11-03T14:00:53.810Z,16.17
2023-11-03T14:03:21.677Z,16.05
2023-11-03T14:05:57.607Z,15.77
2023-11-03T14:08:25.294Z,15.57
2023-11-03T14:10:52.327Z,15.11
2023-11-03T14:13:25.757Z,14.83
2023-11-03T14:15:59.624Z,14.40
2023-11-03T14:18:36.796Z,13.98
2023-11-03T14:21:05.061Z,13.62
2023-11-03T14:23:38.934Z,13.36
2023-11-03T14:26:07.395Z,13.12
2023-11-03T14:28:42.695Z,12.85
2023-11-03T14:31:11.779Z,12.65
2023-11-03T14:33:48.331Z,12.46
2023-11-03T14:36:18.093Z,12.30
2023-11-03T14:39:05.496Z,12.07
2023-11-03T14:41:33.760Z,12.07
2023-11-03T14:44:17.672Z,12.00
2023-11-03T14:47:01.959Z,11.85
2023-11-03T14:49:41.442Z,11.86
2023-11-03T14:52:13.599Z,11.80
2023-11-03T14:54:50.762Z,11.72
2023-11-03T14:57:30.747Z,11.66
2023-11-03T15:00:07.264Z,11.65
2023-11-03T15:02:40.550Z,11.65
2023-11-03T15:05:20.444Z,11.66
2023-11-03T15:07:57.638Z,11.56
2023-11-03T15:10:54.235Z,11.53
2023-11-03T15:13:27.081Z,11.56
2023-11-03T15:21:50.928Z,11.34
2023-11-03T15:24:23.632Z,11.21
2023-11-03T15:27:00.331Z,11.17
2023-11-03T15:29:43.660Z,11.09
2023-11-03T15:32:21.009Z,10.99
2023-11-03T15:38:16.624Z,10.83
2023-11-03T15:40:59.468Z,10.76
2023-11-03T15:43:43.439Z,10.70
2023-11-03T15:46:21.178Z,10.62
2023-11-03T15:49:06.279Z,10.59
2023-11-03T15:51:43.901Z,10.52
2023-11-03T15:54:23.092Z,10.45
2023-11-03T16:02:47.439Z,10.32
2023-11-03T16:08:25.410Z,10.23
2023-11-03T16:16:34.047Z,10.07
2023-11-03T16:19:15.604Z,10.01
2023-11-03T16:25:00.819Z,9.87
2023-11-03T16:27:51.904Z,9.86
2023-11-03T16:33:27.002Z,9.72
2023-11-03T16:36:03.077Z,9.71
2023-11-03T16:38:51.429Z,9.43
2023-11-03T16:41:28.180Z,9.47
2023-11-03T16:53:14.056Z,9.37
2023-11-03T17:07:55.977Z,9.18
2023-11-03T17:20:05.478Z,8.89
2023-11-03T18:13:29.300Z,8.76
2023-11-03T20:30:34.895Z,7.65
2023-11-03T21:00:37.499Z,7.41
2023-11-03T22:16:10.590Z,6.93
